Time;durP1;ratioP1;P1;durP2;ratioP2;P2;SDS_P1;SDS_P2;PMS_P1;PMS_P2;Temp;Humidity;BMP_temperature;BMP_pressure;BME280_temperature;BME280_humidity;BME280_pressure;Samples;Min_cycle;Max_cycle;Signal;HPM_P1;HPM_P2
2022/07/09 00:02:15;;;;;;;2.65;1.38;;;;;;;19.44;57.45;101026.31;5075846;28;20040;-64
2022/07/09 00:04:41;;;;;;;2.25;1.40;;;;;;;19.11;58.55;101023.47;5057978;28;20052;-64
2022/07/09 00:07:06;;;;;;;5.20;1.50;;;;;;;19.10;58.52;101023.50;5089828;28;20046;-64
2022/07/09 00:09:32;;;;;;;4.35;1.88;;;;;;;19.29;58.15;101015.53;5057226;28;20387;-64
2022/07/09 00:11:57;;;;;;;2.20;1.50;;;;;;;19.17;58.26;101027.63;5076769;28;20122;-64
2022/07/09 00:14:23;;;;;;;2.88;1.40;;;;;;;19.21;58.42;101021.22;5075817;28;20020;-64
2022/07/09 00:16:49;;;;;;;3.97;1.50;;;;;;;19.19;58.70;101023.97;5054799;28;20353;-64
2022/07/09 00:19:14;;;;;;;3.40;1.50;;;;;;;19.13;58.43;101015.38;5058328;28;20124;-64
2022/07/09 00:21:40;;;;;;;3.33;1.45;;;;;;;19.17;58.39;101016.97;5076604;28;20047;-64
2022/07/09 00:24:06;;;;;;;3.60;1.42;;;;;;;19.25;58.22;101022.78;5076764;28;20058;-64
2022/07/09 00:26:32;;;;;;;4.20;1.50;;;;;;;19.31;58.13;101022.53;5076399;28;20024;-65
2022/07/09 00:28:57;;;;;;;2.03;1.40;;;;;;;19.23;58.63;101016.69;5076120;28;20054;-64
2022/07/09 00:31:23;;;;;;;2.50;1.10;;;;;;;19.40;58.04;101021.22;5076426;28;20021;-65
2022/07/09 00:33:48;;;;;;;3.03;1.23;;;;;;;19.67;57.38;101011.03;5057680;28;20082;-64
2022/07/09 00:36:13;;;;;;;2.15;1.30;;;;;;;19.73;57.17;101013.38;5076477;28;20373;-65
2022/07/09 00:38:42;;;;;;;3.20;1.60;;;;;;;19.66;58.01;101011.97;5076106;28;20024;-64
2022/07/09 00:41:07;;;;;;;3.10;1.50;;;;;;;19.74;57.48;101007.09;5076102;28;20048;-64
2022/07/09 00:43:33;;;;;;;2.28;1.40;;;;;;;19.82;57.45;101017.38;5076165;28;20491;-65
2022/07/09 00:45:58;;;;;;;3.28;1.73;;;;;;;19.87;57.35;101002.91;5076109;28;20032;-64
2022/07/09 00:48:24;;;;;;;3.08;1.40;;;;;;;20.03;57.04;101002.09;5076208;28;20032;-64
2022/07/09 00:50:50;;;;;;;4.40;1.80;;;;;;;20.12;56.69;100997.19;5075007;28;20036;-64
2022/07/09 00:53:17;;;;;;;4.22;2.20;;;;;;;20.21;56.53;100998.50;5076090;28;20032;-64
2022/07/09 00:55:46;;;;;;;3.47;2.30;;;;;;;20.24;56.54;101001.00;5057705;28;20041;-65
2022/07/09 00:58:15;;;;;;;3.40;2.17;;;;;;;20.33;56.40;101005.84;5057832;28;20455;-64
2022/07/09 01:00:41;;;;;;;3.63;2.28;;;;;;;20.39;56.09;100992.22;5057506;28;20456;-64
2022/07/09 01:03:06;;;;;;;4.28;2.15;;;;;;;20.57;55.88;101008.22;5075906;28;20032;-64
2022/07/09 01:05:35;;;;;;;3.65;2.17;;;;;;;20.58;55.83;100996.59;5076258;28;20411;-64
2022/07/09 01:08:06;;;;;;;3.63;2.15;;;;;;;20.56;55.95;100987.81;5056605;28;20532;-64
2022/07/09 01:10:34;;;;;;;4.55;2.20;;;;;;;20.56;55.80;100993.16;5054578;28;20047;-64
2022/07/09 01:13:00;;;;;;;3.85;2.53;;;;;;;20.60;55.77;100992.03;5037642;28;20079;-64
2022/07/09 01:15:26;;;;;;;4.05;2.20;;;;;;;20.67;55.94;100988.97;5054295;28;20384;-63
2022/07/09 01:17:52;;;;;;;3.78;1.95;;;;;;;20.62;55.88;100984.78;5055785;28;20025;-64
2022/07/09 01:20:30;;;;;;;8.23;2.25;;;;;;;20.59;56.69;100990.31;5036835;28;20041;-64
2022/07/09 01:22:57;;;;;;;3.92;2.10;;;;;;;20.53;56.36;100983.47;5075230;28;20103;-64
2022/07/09 01:25:38;;;;;;;5.38;2.20;;;;;;;20.34;57.34;100983.56;5054186;28;20032;-64
2022/07/09 01:28:05;;;;;;;3.20;2.28;;;;;;;20.02;57.67;100971.03;5037819;28;20032;-64
2022/07/09 01:30:32;;;;;;;3.05;2.17;;;;;;;19.76;58.71;100975.91;5044911;28;20032;-64
2022/07/09 01:32:58;;;;;;;5.05;2.08;;;;;;;19.71;59.22;100979.72;5077574;28;20028;-64
2022/07/09 01:35:23;;;;;;;2.95;1.80;;;;;;;19.74;58.93;100972.44;5095566;28;20039;-63
2022/07/09 01:37:48;;;;;;;2.45;1.60;;;;;;;19.51;59.50;100978.91;5062550;28;20066;-64
2022/07/09 01:40:14;;;;;;;4.43;1.83;;;;;;;19.47;59.67;100971.13;5071908;28;20098;-64
2022/07/09 01:42:40;;;;;;;5.60;2.13;;;;;;;19.47;59.72;100963.13;5055177;28;20032;-64
2022/07/09 01:45:06;;;;;;;5.95;2.35;;;;;;;19.50;59.66;100961.19;5055037;28;20025;-64
2022/07/09 01:47:32;;;;;;;5.30;2.22;;;;;;;19.61;59.50;100960.66;5036993;28;20384;-64
2022/07/09 01:49:57;;;;;;;3.88;2.22;;;;;;;19.46;59.99;100962.25;5053675;28;20487;-64
2022/07/09 01:52:23;;;;;;;3.70;2.10;;;;;;;19.36;60.35;100956.53;5054834;28;20044;-64
2022/07/09 01:54:48;;;;;;;3.00;2.28;;;;;;;19.60;59.88;100954.47;5036394;28;20059;-65
2022/07/09 01:57:14;;;;;;;2.85;1.92;;;;;;;19.65;59.57;100947.13;5055284;28;20061;-64
2022/07/09 01:59:39;;;;;;;4.00;2.50;;;;;;;19.65;59.51;100944.47;5071211;28;20035;-64
2022/07/09 02:02:05;;;;;;;4.55;2.55;;;;;;;19.58;59.78;100943.00;5074489;28;20034;-64
2022/07/09 02:04:31;;;;;;;3.22;2.40;;;;;;;19.55;59.88;100931.63;5074511;28;20119;-64
2022/07/09 02:06:56;;;;;;;2.83;2.10;;;;;;;19.50;60.18;100933.66;5067779;28;20126;-64
2022/07/09 02:09:22;;;;;;;4.88;2.38;;;;;;;19.50;60.17;100923.00;5082958;28;20107;-64
2022/07/09 02:11:48;;;;;;;3.58;2.25;;;;;;;19.43;60.47;100923.34;5074321;28;20032;-64
2022/07/09 02:14:14;;;;;;;2.10;1.65;;;;;;;19.39;60.48;100916.44;5071150;28;20029;-64
2022/07/09 02:16:39;;;;;;;5.10;2.40;;;;;;;19.43;60.33;100912.66;5049037;28;20024;-64
2022/07/09 02:19:06;;;;;;;3.38;2.42;;;;;;;19.45;60.34;100915.25;5074346;28;20033;-64
2022/07/09 02:21:34;;;;;;;3.05;1.95;;;;;;;19.45;60.39;100916.09;5074218;28;20063;-64
2022/07/09 02:24:00;;;;;;;3.75;2.10;;;;;;;19.48;60.44;100911.56;5056222;28;20387;-64
2022/07/09 02:26:27;;;;;;;2.47;1.90;;;;;;;19.49;60.35;100914.16;5056460;28;20483;-64
2022/07/09 02:28:54;;;;;;;5.32;2.17;;;;;;;19.41;60.52;100911.00;5074199;28;20029;-64
2022/07/09 02:31:19;;;;;;;4.95;2.28;;;;;;;19.43;60.65;100907.34;5070265;28;20021;-64
2022/07/09 02:33:44;;;;;;;3.55;2.25;;;;;;;19.46;60.41;100906.31;5054030;28;20488;-64
2022/07/09 02:36:10;;;;;;;3.42;2.10;;;;;;;19.42;60.56;100904.72;5053780;28;20036;-64
2022/07/09 02:38:35;;;;;;;2.05;1.60;;;;;;;19.59;60.03;100902.09;5053807;28;20032;-63
2022/07/09 02:41:01;;;;;;;4.35;1.98;;;;;;;19.72;59.81;100901.50;5054146;28;20036;-63
2022/07/09 02:43:27;;;;;;;2.55;1.83;;;;;;;19.73;59.63;100901.41;5036327;28;20056;-64
2022/07/09 02:45:55;;;;;;;5.78;2.75;;;;;;;19.79;59.87;100905.56;5019927;28;20033;-63
2022/07/09 02:48:25;;;;;;;3.13;1.83;;;;;;;19.76;59.76;100903.06;5036525;28;20468;-64
2022/07/09 02:50:50;;;;;;;4.78;1.80;;;;;;;19.76;59.62;100903.94;5053813;28;20032;-64
2022/07/09 02:53:16;;;;;;;2.92;2.03;;;;;;;19.86;59.58;100893.63;5055630;28;20115;-64
2022/07/09 02:55:41;;;;;;;4.13;2.30;;;;;;;19.90;59.41;100906.72;5073460;28;20055;-64
2022/07/09 02:58:07;;;;;;;3.15;1.80;;;;;;;19.88;59.46;100900.63;5073667;28;20070;-63
2022/07/09 03:00:32;;;;;;;5.05;2.28;;;;;;;19.91;59.54;100903.13;5056293;28;20040;-64
2022/07/09 03:02:58;;;;;;;3.38;2.00;;;;;;;20.06;59.28;100900.59;5073576;28;20061;-64
2022/07/09 03:05:23;;;;;;;2.30;2.10;;;;;;;20.12;59.04;100895.81;5054961;28;20070;-64
2022/07/09 03:07:49;;;;;;;4.90;2.53;;;;;;;20.17;58.78;100892.88;5092057;28;20085;-64
2022/07/09 03:10:14;;;;;;;3.58;2.28;;;;;;;20.25;58.64;100888.00;5093816;28;20049;-64
2022/07/09 03:12:40;;;;;;;3.25;2.10;;;;;;;20.21;58.85;100888.25;5074925;28;20042;-64
2022/07/09 03:15:07;;;;;;;3.22;2.10;;;;;;;20.30;58.86;100893.94;5093652;28;20351;-64
2022/07/09 03:17:33;;;;;;;2.60;1.70;;;;;;;20.38;58.56;100899.72;5035968;28;20033;-63
2022/07/09 03:19:58;;;;;;;4.00;1.73;;;;;;;20.55;58.18;100898.00;5053245;28;20032;-63
2022/07/09 03:22:24;;;;;;;2.63;1.90;;;;;;;20.68;57.65;100896.38;5053997;28;20086;-64
2022/07/09 03:24:49;;;;;;;4.63;1.65;;;;;;;20.84;57.22;100894.56;5035901;28;20044;-64
2022/07/09 03:27:14;;;;;;;2.70;1.90;;;;;;;20.88;57.23;100903.25;5019041;28;20044;-64
2022/07/09 03:29:40;;;;;;;4.53;2.00;;;;;;;20.88;57.26;100889.91;5061910;28;20108;-64
2022/07/09 03:32:06;;;;;;;2.63;2.00;;;;;;;20.54;58.34;100893.59;5073288;28;20040;-64
2022/07/09 03:34:31;;;;;;;3.25;1.83;;;;;;;20.58;58.15;100889.81;5038675;28;20561;-64
2022/07/09 03:36:57;;;;;;;3.65;1.85;;;;;;;20.67;58.05;100891.97;5073370;28;20068;-64
2022/07/09 03:39:25;;;;;;;3.33;2.30;;;;;;;21.02;57.30;100886.44;5054302;28;20089;-64
2022/07/09 03:41:51;;;;;;;4.47;2.17;;;;;;;21.19;56.78;100888.16;5055091;28;20032;-64
2022/07/09 03:44:16;;;;;;;2.70;2.05;;;;;;;20.97;57.49;100893.88;5073301;28;20368;-64
2022/07/09 03:46:42;;;;;;;2.50;1.80;;;;;;;20.92;57.51;100889.66;5073380;28;20105;-64
2022/07/09 03:49:08;;;;;;;2.20;2.00;;;;;;;21.09;57.44;100893.16;5072915;28;20043;-64
2022/07/09 03:51:33;;;;;;;3.53;2.10;;;;;;;20.91;58.05;100887.94;5073366;28;20029;-64
2022/07/09 03:53:59;;;;;;;2.70;1.88;;;;;;;20.95;57.71;100890.44;5055205;28;20082;-63
2022/07/09 03:56:24;;;;;;;3.92;2.20;;;;;;;20.86;58.39;100887.31;5068840;28;20450;-64
2022/07/09 03:58:50;;;;;;;2.90;2.03;;;;;;;20.94;57.81;100889.53;5035466;28;20025;-64
2022/07/09 04:01:15;;;;;;;2.85;1.85;;;;;;;20.98;58.13;100882.22;5053127;28;20364;-64
2022/07/09 04:03:40;;;;;;;2.90;1.48;;;;;;;21.09;57.66;100879.81;5052992;28;20125;-64
2022/07/09 04:06:06;;;;;;;3.65;2.15;;;;;;;21.03;58.16;100888.19;5061704;28;20363;-64
2022/07/09 04:08:31;;;;;;;3.40;2.05;;;;;;;20.97;58.40;100876.03;5092968;28;20035;-64
2022/07/09 04:10:57;;;;;;;5.03;1.92;;;;;;;21.26;57.35;100868.13;5093020;28;20528;-64
2022/07/09 04:13:22;;;;;;;2.70;1.35;;;;;;;21.53;56.74;100877.22;5093156;28;20063;-64
2022/07/09 04:15:48;;;;;;;3.15;1.38;;;;;;;21.68;56.56;100867.44;5093320;28;20455;-64
2022/07/09 04:18:15;;;;;;;4.47;1.60;;;;;;;21.62;56.44;100862.44;5074821;28;20520;-64
2022/07/09 04:20:40;;;;;;;3.38;1.60;;;;;;;21.65;56.73;100863.13;5093037;28;20051;-64
2022/07/09 04:23:06;;;;;;;2.33;1.75;;;;;;;22.04;55.69;100861.66;5093717;28;20051;-64
2022/07/09 04:25:31;;;;;;;3.50;2.03;;;;;;;21.79;56.31;100864.13;5079109;28;20059;-64
2022/07/09 04:27:58;;;;;;;3.20;1.50;;;;;;;21.66;56.34;100858.63;5078548;28;20080;-64
2022/07/09 04:30:25;;;;;;;3.67;1.90;;;;;;;21.55;56.96;100866.47;5078792;28;20024;-64
2022/07/09 04:32:51;;;;;;;3.75;1.73;;;;;;;21.74;56.64;100863.53;5096560;28;20051;-63
2022/07/09 04:35:16;;;;;;;2.47;1.38;;;;;;;21.85;56.22;100861.91;5078367;28;20420;-64
2022/07/09 04:37:42;;;;;;;3.78;1.80;;;;;;;22.01;55.74;100860.97;5096724;28;20366;-64
2022/07/09 04:40:08;;;;;;;4.88;1.90;;;;;;;22.06;55.64;100864.22;5096602;28;20439;-64
2022/07/09 04:42:33;;;;;;;4.65;2.20;;;;;;;22.16;55.52;100861.88;5061696;28;20032;-64
2022/07/09 04:44:59;;;;;;;3.33;1.80;;;;;;;21.95;56.12;100866.72;5078537;28;20371;-64
2022/07/09 04:47:24;;;;;;;3.42;1.88;;;;;;;21.97;55.99;100862.13;5096361;28;20042;-64
2022/07/09 04:49:49;;;;;;;3.90;1.67;;;;;;;22.15;55.89;100857.50;5087035;28;20028;-65
2022/07/09 04:52:19;;;;;;;5.00;2.15;;;;;;;22.48;55.38;100858.03;5041315;28;20035;-64
2022/07/09 04:54:45;;;;;;;3.35;1.70;;;;;;;22.79;54.14;100845.34;5058253;28;20052;-64
2022/07/09 04:57:11;;;;;;;3.25;1.40;;;;;;;23.20;52.85;100852.50;5058258;28;20028;-64
2022/07/09 04:59:36;;;;;;;2.33;1.25;;;;;;;23.30;52.63;100849.13;5076006;28;20371;-64
2022/07/09 05:02:02;;;;;;;4.55;1.40;;;;;;;23.65;51.72;100843.16;5057686;28;20519;-64
2022/07/09 05:04:30;;;;;;;4.30;1.23;;;;;;;24.00;50.56;100845.22;5076054;28;20028;-64
2022/07/09 05:06:56;;;;;;;4.53;1.20;;;;;;;24.41;49.89;100855.72;5087006;28;20061;-64
2022/07/09 05:09:22;;;;;;;2.75;1.30;;;;;;;24.57;49.54;100848.28;5077935;28;20047;-64
2022/07/09 05:11:47;;;;;;;3.13;1.52;;;;;;;24.73;49.38;100850.69;5095943;28;20419;-64
2022/07/09 05:14:13;;;;;;;4.88;2.10;;;;;;;24.37;50.01;100848.84;5078196;28;20035;-64
2022/07/09 05:16:44;;;;;;;2.80;1.30;;;;;;;24.27;50.22;100851.34;5077798;28;20024;-64
2022/07/09 05:19:12;;;;;;;3.78;1.25;;;;;;;24.46;49.59;100850.91;5095868;28;20032;-64
2022/07/09 05:21:39;;;;;;;3.65;1.27;;;;;;;24.71;49.23;100849.97;5078055;28;20032;-64
2022/07/09 05:24:05;;;;;;;6.00;1.75;;;;;;;24.79;48.99;100852.09;5077542;28;20056;-64
2022/07/09 05:26:31;;;;;;;5.05;1.58;;;;;;;23.77;50.92;100857.56;5078409;28;20032;-64
2022/07/09 05:28:57;;;;;;;6.25;2.03;;;;;;;23.69;51.50;100847.38;5077736;28;20043;-64
2022/07/09 05:31:22;;;;;;;2.70;1.35;;;;;;;24.10;50.41;100849.00;5077551;28;20031;-64
2022/07/09 05:33:48;;;;;;;4.35;1.77;;;;;;;23.42;51.95;100842.06;5077287;28;20467;-64
2022/07/09 05:36:13;;;;;;;5.05;1.67;;;;;;;23.38;51.95;100842.34;5094699;28;20031;-64
2022/07/09 05:38:38;;;;;;;5.68;1.63;;;;;;;23.32;52.00;100836.44;5077473;28;20508;-64
2022/07/09 05:41:04;;;;;;;7.07;1.30;;;;;;;22.85;52.97;100835.06;5095289;28;20040;-64
2022/07/09 05:43:29;;;;;;;6.43;1.50;;;;;;;22.94;52.42;100835.47;5077608;28;20021;-64
2022/07/09 05:45:55;;;;;;;3.72;1.42;;;;;;;23.10;52.20;100833.50;5077092;28;20593;-64
2022/07/09 05:48:21;;;;;;;4.05;1.60;;;;;;;22.53;52.82;100836.31;5095174;28;20043;-64
2022/07/09 05:50:46;;;;;;;5.85;1.60;;;;;;;22.30;53.43;100829.75;5085646;28;20024;-64
2022/07/09 05:53:12;;;;;;;6.40;1.70;;;;;;;22.58;52.69;100823.47;5075090;28;20231;-65
2022/07/09 05:55:37;;;;;;;7.25;2.03;;;;;;;22.38;53.63;100833.69;5056917;28;20053;-65
2022/07/09 05:58:02;;;;;;;5.80;1.80;;;;;;;22.12;53.61;100826.41;5074606;28;20039;-65
2022/07/09 06:00:28;;;;;;;9.27;2.05;;;;;;;22.14;53.71;100824.50;5056767;28;20028;-65
2022/07/09 06:02:56;;;;;;;6.40;1.83;;;;;;;22.23;53.16;100815.06;5056705;28;20032;-64
2022/07/09 06:05:22;;;;;;;4.18;1.40;;;;;;;22.40;52.91;100813.97;5056848;28;20024;-65
2022/07/09 06:07:47;;;;;;;4.03;1.50;;;;;;;22.36;52.89;100811.50;5092849;28;20035;-65
2022/07/09 06:10:14;;;;;;;5.40;1.80;;;;;;;22.31;52.52;100829.66;5094961;28;20024;-65
2022/07/09 06:12:41;;;;;;;5.85;1.80;;;;;;;21.96;53.27;100822.97;5094666;28;20035;-64
2022/07/09 06:15:08;;;;;;;8.18;1.88;;;;;;;22.18;52.81;100825.19;5076581;28;20032;-65
2022/07/09 06:17:34;;;;;;;6.75;1.70;;;;;;;22.48;52.26;100822.38;5059954;28;20060;-65
2022/07/09 06:20:00;;;;;;;5.97;1.80;;;;;;;22.75;51.55;100817.91;5072861;28;20111;-65
2022/07/09 06:22:27;;;;;;;7.68;1.60;;;;;;;23.38;50.05;100818.22;5067564;28;20063;-65
2022/07/09 06:24:53;;;;;;;4.93;1.58;;;;;;;23.77;49.21;100815.50;5043907;28;20033;-65
2022/07/09 06:27:18;;;;;;;8.93;1.88;;;;;;;23.20;50.05;100828.38;5036195;28;20078;-65
2022/07/09 06:29:44;;;;;;;6.25;1.80;;;;;;;23.25;48.77;100808.34;5053905;28;20039;-65
2022/07/09 06:32:09;;;;;;;4.20;1.63;;;;;;;23.27;48.79;100811.78;5048370;28;20525;-65
2022/07/09 06:34:35;;;;;;;7.05;1.88;;;;;;;23.08;48.42;100819.34;5074410;28;20453;-65
2022/07/09 06:37:00;;;;;;;5.63;1.90;;;;;;;23.20;48.33;100818.50;5059976;28;20036;-65
2022/07/09 06:39:48;;;;;;;8.45;2.78;;;;;;;23.09;48.32;100818.38;5036173;28;20074;-65
2022/07/09 06:42:16;;;;;;;8.10;2.10;;;;;;;23.35;47.89;100819.31;5036161;28;20116;-65
2022/07/09 06:44:42;;;;;;;7.45;2.25;;;;;;;23.25;47.40;100808.34;5019840;28;20036;-65
2022/07/09 06:47:07;;;;;;;4.72;1.90;;;;;;;23.75;46.61;100803.19;5053849;28;20025;-65
2022/07/09 06:49:33;;;;;;;4.80;1.60;;;;;;;23.41;47.25;100797.41;5052856;28;20032;-65
2022/07/09 06:51:59;;;;;;;4.55;1.73;;;;;;;23.63;46.63;100807.53;5055150;28;20108;-65
2022/07/09 06:54:25;;;;;;;5.50;1.52;;;;;;;23.19;48.13;100803.41;5060163;28;20136;-65
2022/07/09 06:56:50;;;;;;;4.05;1.33;;;;;;;23.60;47.20;100797.88;5066842;28;20062;-66
2022/07/09 06:59:18;;;;;;;4.78;1.48;;;;;;;23.80;46.36;100811.75;5055774;28;20074;-65
2022/07/09 07:01:43;;;;;;;3.95;1.80;;;;;;;23.08;48.03;100801.44;5036076;28;20361;-65
2022/07/09 07:04:11;;;;;;;4.10;1.63;;;;;;;23.03;48.28;100810.75;5053586;28;20086;-65
2022/07/09 07:06:37;;;;;;;4.47;1.50;;;;;;;23.05;48.06;100803.47;5070238;28;20375;-65
2022/07/09 07:09:03;;;;;;;3.92;1.13;;;;;;;23.34;47.50;100804.19;5058986;28;20097;-65
2022/07/09 07:11:28;;;;;;;6.68;1.63;;;;;;;23.23;47.57;100810.28;5056808;28;20464;-65
2022/07/09 07:13:54;;;;;;;5.40;1.63;;;;;;;23.13;47.81;100798.44;5073584;28;20116;-66
2022/07/09 07:16:19;;;;;;;5.70;1.60;;;;;;;23.26;47.86;100810.06;5055584;28;20025;-65
2022/07/09 07:18:45;;;;;;;6.88;1.77;;;;;;;22.84;48.47;100798.53;5073549;28;20056;-65
2022/07/09 07:21:11;;;;;;;5.18;1.60;;;;;;;23.49;46.71;100805.78;5073113;28;20425;-66
2022/07/09 07:23:36;;;;;;;4.78;1.50;;;;;;;23.74;45.60;100804.16;5045830;28;20048;-65
2022/07/09 07:26:02;;;;;;;4.15;1.50;;;;;;;23.12;46.68;100804.78;5056211;28;20043;-65
2022/07/09 07:28:27;;;;;;;5.35;1.55;;;;;;;22.64;46.93;100815.06;5030746;28;20032;-64
2022/07/09 07:30:53;;;;;;;4.03;1.55;;;;;;;22.84;46.43;100816.44;5060584;28;20025;-64
2022/07/09 07:33:18;;;;;;;5.95;1.60;;;;;;;23.35;45.60;100804.06;5032372;28;20037;-64
2022/07/09 07:35:44;;;;;;;4.80;1.80;;;;;;;23.27;45.52;100803.75;5062626;28;20119;-64
2022/07/09 07:38:13;;;;;;;4.55;1.30;;;;;;;23.67;45.16;100798.34;5043496;28;20090;-64
2022/07/09 07:40:38;;;;;;;4.40;1.42;;;;;;;23.44;44.62;100799.03;5059009;28;20027;-65
2022/07/09 07:43:03;;;;;;;4.47;1.50;;;;;;;23.38;43.61;100796.78;5066562;28;20025;-64
2022/07/09 07:45:30;;;;;;;5.55;1.30;;;;;;;23.52;43.30;100802.91;5071031;28;20171;-64
2022/07/09 07:47:56;;;;;;;4.60;1.50;;;;;;;23.98;42.81;100789.00;5038053;28;20043;-64
2022/07/09 07:50:22;;;;;;;4.95;1.30;;;;;;;23.68;42.44;100794.69;5037327;28;20031;-64
2022/07/09 07:52:47;;;;;;;2.55;1.13;;;;;;;23.46;43.19;100783.69;5072893;28;20025;-64
2022/07/09 07:55:13;;;;;;;4.50;1.40;;;;;;;23.26;42.99;100782.38;5054755;28;20143;-64
2022/07/09 07:57:39;;;;;;;5.57;1.55;;;;;;;23.49;42.89;100789.72;5064360;28;20384;-64
2022/07/09 08:00:05;;;;;;;6.05;1.38;;;;;;;23.59;42.62;100781.91;5062339;28;20049;-64
2022/07/09 08:02:31;;;;;;;3.53;1.67;;;;;;;23.65;42.11;100784.13;5074831;28;20029;-64
2022/07/09 08:04:57;;;;;;;7.20;1.58;;;;;;;23.66;42.31;100788.59;5060424;28;20025;-64
2022/07/09 08:07:22;;;;;;;6.95;1.70;;;;;;;23.86;42.13;100776.47;5068255;28;20027;-64
2022/07/09 08:09:48;;;;;;;5.80;1.30;;;;;;;23.87;42.29;100783.53;5097140;28;20026;-64
2022/07/09 08:12:13;;;;;;;4.30;1.52;;;;;;;23.20;43.41;100780.13;5083671;28;20037;-64
2022/07/09 08:14:39;;;;;;;5.10;1.40;;;;;;;23.47;43.07;100783.59;5070398;28;20056;-64
2022/07/09 08:17:05;;;;;;;4.40;1.50;;;;;;;23.38;43.41;100780.69;5060216;28;20081;-64
2022/07/09 08:19:30;;;;;;;6.60;1.70;;;;;;;23.76;42.88;100776.22;5058078;28;20029;-64
2022/07/09 08:21:56;;;;;;;4.95;1.60;;;;;;;23.39;43.90;100788.63;5070980;28;20044;-64
2022/07/09 08:24:22;;;;;;;6.65;1.77;;;;;;;23.40;44.31;100781.44;5071893;28;20051;-64
2022/07/09 08:26:47;;;;;;;6.45;1.75;;;;;;;22.99;44.88;100782.44;5064876;28;20044;-64
2022/07/09 08:29:13;;;;;;;3.85;1.38;;;;;;;23.52;44.08;100781.44;5060104;28;20360;-63
2022/07/09 08:31:38;;;;;;;5.10;1.73;;;;;;;22.54;45.44;100804.09;5061189;28;20016;-64
2022/07/09 08:34:04;;;;;;;4.32;1.50;;;;;;;22.67;45.19;100785.41;5072643;28;20487;-63
2022/07/09 08:36:29;;;;;;;7.38;1.50;;;;;;;22.56;45.28;100795.97;5038575;28;20423;-63
2022/07/09 08:38:55;;;;;;;7.07;2.03;;;;;;;22.26;46.37;100788.97;5041446;28;20119;-64
2022/07/09 08:41:23;;;;;;;7.43;2.10;;;;;;;22.70;45.64;100778.97;5058574;28;20402;-63
2022/07/09 08:43:51;;;;;;;6.28;1.95;;;;;;;22.65;45.63;100784.63;5038072;28;20052;-64
2022/07/09 08:46:17;;;;;;;5.55;1.70;;;;;;;22.77;45.11;100783.81;5038069;28;20021;-63
2022/07/09 08:48:43;;;;;;;7.88;1.80;;;;;;;23.01;44.82;100789.41;5038074;28;20033;-64
2022/07/09 08:51:10;;;;;;;5.90;1.50;;;;;;;23.51;43.84;100781.56;5038198;28;20036;-63
2022/07/09 08:53:41;;;;;;;6.53;1.98;;;;;;;23.09;44.77;100783.53;5037623;28;20115;-64
2022/07/09 08:56:07;;;;;;;4.53;1.25;;;;;;;22.94;45.04;100797.94;5062198;28;20053;-63
2022/07/09 08:58:33;;;;;;;5.03;1.67;;;;;;;23.25;44.81;100786.03;5047141;28;20025;-63
2022/07/09 09:00:58;;;;;;;5.80;1.70;;;;;;;23.18;45.14;100785.63;5055640;28;20025;-64
2022/07/09 09:03:24;;;;;;;5.93;1.75;;;;;;;22.93;45.23;100791.75;5055750;28;20368;-63
2022/07/09 09:06:21;;;;;;;4.60;1.48;;;;;;;23.19;42.80;100787.31;5037821;28;20020;-64
2022/07/09 09:08:46;;;;;;;5.45;1.30;;;;;;;23.67;42.87;100790.28;5041281;28;20036;-63
2022/07/09 09:11:20;;;;;;;4.75;1.10;;;;;;;23.24;41.87;100784.31;5024288;28;20032;-64
2022/07/09 09:13:49;;;;;;;3.30;1.02;;;;;;;23.53;41.44;100785.00;5057746;28;20035;-63
2022/07/09 09:16:17;;;;;;;4.93;1.60;;;;;;;23.51;41.77;100779.75;5057495;28;20028;-64
2022/07/09 09:18:45;;;;;;;5.93;1.40;;;;;;;24.14;40.82;100779.81;5057435;28;20121;-63
2022/07/09 09:21:11;;;;;;;4.78;1.27;;;;;;;24.28;41.09;100775.19;5057608;28;20166;-64
2022/07/09 09:23:45;;;;;;;4.93;1.67;;;;;;;24.13;40.31;100773.59;5050119;28;20518;-63
2022/07/09 09:26:16;;;;;;;7.40;1.65;;;;;;;23.42;41.53;100783.06;5065357;28;20039;-63
2022/07/09 09:28:45;;;;;;;4.55;1.25;;;;;;;23.09;41.37;100780.84;5075449;28;20464;-64
2022/07/09 09:31:25;;;;;;;4.85;1.48;;;;;;;23.53;41.01;100779.63;5057241;28;20091;-63
2022/07/09 09:33:52;;;;;;;5.75;1.05;;;;;;;23.73;40.69;100779.13;5057212;28;20029;-64
2022/07/09 09:36:50;;;;;;;5.22;1.50;;;;;;;23.82;38.25;100783.84;5057733;28;20028;-64
2022/07/09 09:39:18;;;;;;;4.68;1.02;;;;;;;24.10;39.04;100781.91;5063185;28;20086;-63
2022/07/09 09:41:54;;;;;;;5.05;0.93;;;;;;;23.76;38.56;100786.97;5075052;28;20029;-64
2022/07/09 09:44:25;;;;;;;2.75;1.17;;;;;;;23.76;38.61;100788.78;5057373;28;20028;-63
2022/07/09 09:46:51;;;;;;;5.05;1.17;;;;;;;24.30;38.69;100775.09;5057031;28;20028;-63
2022/07/09 09:49:17;;;;;;;3.05;0.98;;;;;;;24.11;38.64;100780.91;5057146;28;20033;-63
2022/07/09 09:52:05;;;;;;;3.60;1.20;;;;;;;24.00;38.97;100786.19;5056892;28;20067;-63
2022/07/09 09:54:38;;;;;;;4.22;1.02;;;;;;;23.67;39.20;100784.09;5074626;28;20051;-63
2022/07/09 09:57:09;;;;;;;3.78;0.98;;;;;;;23.58;39.42;100785.56;5057368;28;20028;-64
2022/07/09 09:59:40;;;;;;;2.33;0.63;;;;;;;24.15;38.71;100787.78;5074864;28;20028;-63
2022/07/09 10:02:06;;;;;;;2.33;0.70;;;;;;;23.54;38.66;100781.38;5074708;28;20029;-64
2022/07/09 10:04:32;;;;;;;5.85;1.00;;;;;;;23.68;38.94;100800.06;5074917;28;20419;-64
2022/07/09 10:06:58;;;;;;;3.70;1.00;;;;;;;23.51;39.04;100776.22;5086155;28;20448;-64
2022/07/09 10:09:23;;;;;;;5.82;1.35;;;;;;;23.26;39.21;100769.88;5076521;28;20482;-64
2022/07/09 10:11:49;;;;;;;1.80;0.70;;;;;;;23.73;39.23;100768.38;5094638;28;20032;-64
2022/07/09 10:14:37;;;;;;;4.40;1.00;;;;;;;23.56;39.13;100761.50;5060054;28;20131;-63
2022/07/09 10:17:16;;;;;;;2.53;0.77;;;;;;;23.77;39.22;100772.56;5076729;28;20081;-63
2022/07/09 10:20:17;;;;;;;4.60;0.77;;;;;;;23.80;39.78;100767.00;5059726;28;20503;-63
2022/07/09 10:22:48;;;;;;;2.53;0.77;;;;;;;24.06;38.66;100764.31;4976119;28;20104;-63
2022/07/09 10:25:29;;;;;;;4.20;0.85;;;;;;;24.02;38.90;100766.34;5059376;28;20032;-63
2022/07/09 10:27:54;;;;;;;4.75;1.25;;;;;;;23.85;39.18;100770.19;5059695;28;20024;-64
2022/07/09 10:30:30;;;;;;;2.97;0.90;;;;;;;23.76;39.32;100762.81;5094321;28;20367;-63
2022/07/09 10:33:13;;;;;;;2.15;0.80;;;;;;;23.83;39.38;100760.56;5076166;28;20032;-63
2022/07/09 10:35:40;;;;;;;2.33;0.70;;;;;;;24.44;38.57;100761.53;5059680;28;20459;-63
2022/07/09 10:38:06;;;;;;;2.35;0.75;;;;;;;24.92;38.21;100752.59;5094037;28;20028;-63
2022/07/09 10:40:38;;;;;;;1.95;0.70;;;;;;;24.51;39.11;100746.66;5094286;28;20098;-64
2022/07/09 10:43:04;;;;;;;3.53;0.90;;;;;;;25.27;37.92;100756.16;5076127;28;20020;-63
2022/07/09 10:45:44;;;;;;;1.38;0.60;;;;;;;25.44;37.13;100743.25;5075944;28;20027;-63
2022/07/09 10:48:11;;;;;;;3.22;0.70;;;;;;;25.74;37.44;100737.28;5093787;28;20032;-64
2022/07/09 10:50:39;;;;;;;2.33;0.70;;;;;;;25.05;38.56;100730.06;5086175;28;20115;-64
2022/07/09 10:53:05;;;;;;;3.70;0.90;;;;;;;25.09;38.29;100741.44;5073910;28;20133;-64
2022/07/09 10:55:31;;;;;;;2.08;0.95;;;;;;;25.03;38.67;100734.69;5055462;28;20609;-63
2022/07/09 10:57:57;;;;;;;4.55;0.63;;;;;;;24.62;39.34;100732.44;5073282;28;20017;-63
2022/07/09 11:00:32;;;;;;;3.63;0.68;;;;;;;24.51;39.80;100741.31;5073574;28;20090;-63
2022/07/09 11:03:05;;;;;;;2.55;0.70;;;;;;;24.16;40.64;100738.50;5073488;28;20486;-63
2022/07/09 11:05:43;;;;;;;4.35;1.13;;;;;;;22.23;54.02;100767.75;5055553;28;20463;-64
2022/07/09 11:08:09;;;;;;;2.70;0.88;;;;;;;21.14;56.80;100777.09;5053432;28;20104;-64
2022/07/09 11:10:36;;;;;;;2.15;0.98;;;;;;;20.41;58.71;100774.13;5053447;28;20376;-63
2022/07/09 11:13:03;;;;;;;1.40;0.80;;;;;;;20.17;57.76;100783.50;5035547;28;20033;-63
2022/07/09 11:15:33;;;;;;;3.10;0.70;;;;;;;20.11;57.17;100771.38;5053438;28;20029;-63
2022/07/09 11:18:00;;;;;;;2.05;0.70;;;;;;;20.54;56.05;100760.97;5053213;28;20024;-64
2022/07/09 11:20:27;;;;;;;0.70;0.43;;;;;;;21.38;54.65;100753.41;5035843;28;20087;-64
2022/07/09 11:23:00;;;;;;;0.77;0.45;;;;;;;21.55;52.08;100751.50;5019013;28;20032;-64
2022/07/09 11:25:26;;;;;;;;;;;;;;;22.66;49.22;100756.91;5052451;28;20465;-63